createdAt,value
2023-02-28T00:01:32.022Z,54.28
2023-02-28T00:03:59.961Z,70.88
2023-02-28T00:06:27.783Z,50.58
2023-02-28T00:08:55.724Z,66.70
2023-02-28T00:11:30.688Z,68.38
2023-02-28T00:13:59.266Z,70.28
2023-02-28T00:16:27.478Z,70.13
2023-02-28T00:18:55.256Z,73.28
2023-02-28T00:21:23.103Z,72.03
2023-02-28T00:23:50.930Z,69.75
2023-02-28T00:26:21.541Z,58.25
2023-02-28T00:28:50.798Z,55.70
2023-02-28T00:31:18.728Z,65.93
2023-02-28T00:33:46.637Z,64.57
2023-02-28T00:36:17.110Z,59.33
2023-02-28T00:38:45.635Z,61.67
2023-02-28T00:41:14.070Z,56.90
2023-02-28T00:43:43.848Z,55.15
2023-02-28T00:46:12.652Z,58.50
2023-02-28T00:48:40.632Z,59.90
2023-02-28T00:51:08.423Z,59.10
2023-02-28T00:53:39.021Z,53.58
2023-02-28T00:56:07.003Z,54.78
2023-02-28T00:58:35.577Z,48.40
2023-02-28T01:01:03.495Z,56.25
2023-02-28T01:03:32.469Z,45.70
2023-02-28T01:06:00.617Z,61.50
2023-02-28T01:08:28.759Z,50.42
2023-02-28T01:10:58.620Z,53.33
2023-02-28T01:13:26.776Z,47.75
2023-02-28T01:15:56.737Z,41.72
2023-02-28T01:18:25.912Z,47.90
2023-02-28T01:20:54.073Z,41.90
2023-02-28T01:23:22.928Z,38.35
2023-02-28T01:25:54.297Z,38.13
2023-02-28T01:30:51.748Z,35.65
2023-02-28T01:33:19.951Z,37.45
2023-02-28T01:35:47.811Z,37.67
2023-02-28T01:38:22.681Z,38.58
2023-02-28T01:40:51.218Z,38.25
2023-02-28T01:43:27.039Z,38.05
2023-02-28T01:45:57.733Z,38.88
2023-02-28T01:48:37.016Z,38.42
2023-02-28T01:51:07.967Z,35.42
2023-02-28T01:53:44.073Z,40.00
2023-02-28T01:56:12.460Z,37.28
2023-02-28T01:58:40.576Z,39.25
2023-02-28T02:01:08.370Z,30.17
2023-02-28T02:03:36.647Z,38.08
2023-02-28T02:06:04.763Z,33.42
2023-02-28T02:08:34.107Z,36.42
2023-02-28T02:11:02.607Z,40.50
2023-02-28T02:13:54.476Z,40.28
2023-02-28T02:16:47.195Z,21.95
2023-02-28T02:19:56.928Z,40.28
2023-02-28T02:22:51.972Z,37.85
2023-02-28T02:25:52.361Z,39.38
2023-02-28T02:28:41.618Z,28.00
2023-02-28T02:31:30.389Z,38.92
2023-02-28T02:34:11.950Z,35.33
2023-02-28T02:36:50.397Z,37.00
2023-02-28T02:39:44.035Z,30.25
2023-02-28T02:42:41.060Z,39.65
2023-02-28T02:45:20.144Z,35.25
2023-02-28T02:47:49.824Z,35.50
2023-02-28T02:50:24.156Z,40.63
2023-02-28T02:52:56.971Z,42.40
2023-02-28T02:55:25.168Z,39.97
2023-02-28T02:57:58.613Z,43.70
2023-02-28T03:00:29.655Z,42.70
2023-02-28T03:02:57.416Z,35.97
2023-02-28T03:05:37.271Z,48.75
2023-02-28T03:08:06.688Z,34.63
2023-02-28T03:10:38.933Z,40.70
2023-02-28T03:13:44.531Z,42.03
2023-02-28T03:16:15.647Z,41.53
2023-02-28T03:19:06.305Z,40.05
2023-02-28T03:22:04.115Z,40.72
2023-02-28T03:24:49.523Z,40.80
2023-02-28T03:27:29.165Z,41.70
2023-02-28T03:30:05.846Z,35.72
2023-02-28T03:32:38.132Z,37.40
2023-02-28T03:35:31.060Z,40.88
2023-02-28T03:38:04.788Z,37.33
2023-02-28T03:40:34.096Z,43.22
2023-02-28T03:43:04.863Z,39.25
2023-02-28T03:45:34.659Z,39.58
2023-02-28T03:48:06.821Z,35.35
2023-02-28T03:50:39.564Z,31.45
2023-02-28T03:53:21.617Z,38.92
2023-02-28T03:56:09.623Z,38.05
2023-02-28T03:58:58.498Z,36.80
2023-02-28T04:01:28.935Z,39.53
2023-02-28T04:03:57.025Z,29.52
2023-02-28T04:06:25.097Z,35.47
2023-02-28T04:08:52.943Z,34.72
2023-02-28T04:11:38.902Z,36.95
2023-02-28T04:14:07.295Z,32.63
2023-02-28T04:16:36.210Z,38.13
2023-02-28T04:19:06.270Z,37.67
2023-02-28T04:21:36.663Z,31.83
2023-02-28T04:24:07.046Z,35.17
2023-02-28T04:26:36.734Z,38.00
2023-02-28T04:29:05.855Z,34.88
2023-02-28T04:31:34.797Z,40.17
2023-02-28T04:34:02.978Z,36.00
2023-02-28T04:36:31.621Z,35.20
2023-02-28T04:39:01.132Z,38.95
2023-02-28T04:41:32.623Z,34.05
2023-02-28T04:44:00.882Z,27.35
2023-02-28T04:46:29.236Z,35.08
2023-02-28T04:48:56.923Z,38.03
2023-02-28T04:51:25.497Z,31.55
2023-02-28T04:53:55.908Z,36.65
2023-02-28T04:56:23.964Z,37.35
2023-02-28T04:58:54.211Z,39.83
2023-02-28T05:01:24.725Z,37.50
2023-02-28T05:03:53.476Z,36.30
2023-02-28T05:06:27.190Z,36.15
2023-02-28T05:08:55.375Z,35.35
2023-02-28T05:11:28.663Z,36.25
2023-02-28T05:13:56.635Z,31.40
2023-02-28T05:16:24.381Z,36.47
2023-02-28T05:18:55.558Z,33.28
2023-02-28T05:21:41.756Z,34.65
2023-02-28T05:24:13.852Z,33.45
2023-02-28T05:26:42.818Z,35.28
2023-02-28T05:29:10.811Z,37.67
2023-02-28T05:31:39.790Z,40.05
2023-02-28T05:34:07.768Z,37.28
2023-02-28T05:36:38.131Z,36.05
2023-02-28T05:39:13.827Z,37.13
2023-02-28T05:41:44.807Z,32.28
2023-02-28T05:44:13.580Z,38.17
2023-02-28T05:46:45.464Z,25.42
2023-02-28T05:49:14.089Z,40.13
2023-02-28T05:51:42.192Z,30.35
2023-02-28T05:54:13.562Z,32.20
2023-02-28T05:56:45.399Z,24.30
2023-02-28T05:59:14.425Z,32.95
2023-02-28T06:01:46.388Z,40.40
2023-02-28T06:04:30.390Z,29.90
2023-02-28T06:06:58.943Z,28.58
2023-02-28T06:09:32.655Z,28.95
2023-02-28T06:12:01.707Z,36.65
2023-02-28T06:14:29.901Z,30.08
2023-02-28T06:17:02.183Z,24.25
2023-02-28T06:19:31.407Z,20.73
2023-02-28T06:22:00.855Z,26.77
2023-02-28T06:24:29.574Z,27.52
2023-02-28T06:27:00.014Z,22.35
2023-02-28T06:29:28.106Z,22.25
2023-02-28T06:31:56.650Z,23.45
2023-02-28T06:34:25.130Z,28.63
2023-02-28T06:36:53.413Z,24.13
2023-02-28T06:39:26.384Z,24.08
2023-02-28T06:41:56.194Z,24.77
2023-02-28T06:44:24.721Z,26.08
2023-02-28T06:46:52.920Z,25.27
2023-02-28T06:49:25.725Z,24.73
2023-02-28T06:52:01.829Z,20.25
2023-02-28T06:54:30.206Z,22.70
2023-02-28T06:56:59.301Z,17.30
2023-02-28T06:59:27.445Z,24.50
2023-02-28T07:01:56.498Z,22.40
2023-02-28T07:04:25.328Z,22.42
2023-02-28T07:06:58.428Z,23.70
2023-02-28T07:09:31.271Z,21.85
2023-02-28T07:12:03.108Z,23.30
2023-02-28T07:14:31.742Z,29.40
2023-02-28T07:16:59.966Z,23.98
2023-02-28T07:19:42.459Z,28.90
2023-02-28T07:22:10.881Z,23.10
2023-02-28T07:24:42.411Z,19.90
2023-02-28T07:27:28.118Z,19.90
2023-02-28T07:30:02.949Z,28.67
2023-02-28T07:32:32.305Z,30.60
2023-02-28T07:35:00.962Z,32.45
2023-02-28T07:37:32.824Z,32.63
2023-02-28T07:40:03.365Z,29.85
2023-02-28T07:42:33.503Z,23.52
2023-02-28T07:45:05.364Z,28.70
2023-02-28T07:47:35.903Z,27.80
2023-02-28T07:50:41.358Z,19.70
2023-02-28T07:53:09.575Z,25.02
2023-02-28T07:55:41.665Z,33.30
2023-02-28T07:58:14.000Z,27.92
2023-02-28T08:00:42.386Z,21.17
2023-02-28T08:03:13.278Z,24.77
2023-02-28T08:05:41.590Z,24.92
2023-02-28T08:08:12.409Z,30.15
2023-02-28T08:10:57.384Z,24.00
2023-02-28T08:13:25.896Z,32.45
2023-02-28T08:15:56.102Z,28.90
2023-02-28T08:18:24.289Z,25.48
2023-02-28T08:20:55.630Z,27.60
2023-02-28T08:23:24.699Z,26.30
2023-02-28T08:25:57.132Z,25.63
2023-02-28T08:28:27.799Z,23.02
2023-02-28T08:30:56.602Z,29.90
2023-02-28T08:33:28.248Z,22.77
2023-02-28T08:35:57.034Z,27.58
2023-02-28T08:38:25.344Z,31.42
2023-02-28T08:41:00.882Z,33.95
2023-02-28T08:43:30.383Z,31.98
2023-02-28T08:46:01.834Z,35.60
2023-02-28T08:48:30.863Z,34.35
2023-02-28T08:51:07.328Z,28.58
2023-02-28T08:53:38.423Z,29.85
2023-02-28T08:56:12.870Z,27.52
2023-02-28T08:58:45.127Z,26.88
2023-02-28T09:01:31.972Z,19.83
2023-02-28T09:04:19.817Z,28.35
2023-02-28T09:06:50.809Z,24.77
2023-02-28T09:09:23.545Z,21.50
2023-02-28T09:12:06.453Z,22.70
2023-02-28T09:14:38.831Z,22.88
2023-02-28T09:17:12.749Z,26.35
2023-02-28T09:19:47.220Z,31.48
2023-02-28T09:22:27.551Z,24.17
2023-02-28T09:24:58.662Z,19.60
2023-02-28T09:27:30.402Z,17.55
2023-02-28T09:30:05.713Z,16.77
2023-02-28T09:32:55.773Z,22.25
2023-02-28T09:35:35.608Z,22.63
2023-02-28T09:38:04.907Z,24.52
2023-02-28T09:40:48.897Z,22.13
2023-02-28T09:43:42.439Z,23.13
2023-02-28T09:46:48.831Z,24.52
2023-02-28T09:49:23.647Z,21.08
2023-02-28T09:52:19.100Z,21.25
2023-02-28T09:58:04.872Z,23.02
2023-02-28T10:00:41.702Z,16.95
2023-02-28T10:03:26.496Z,22.65
2023-02-28T10:09:12.716Z,22.17
2023-02-28T10:11:59.082Z,17.00
2023-02-28T10:14:35.436Z,13.95
2023-02-28T10:17:49.342Z,27.52
2023-02-28T10:20:34.204Z,18.10
2023-02-28T10:23:17.468Z,22.75
2023-02-28T10:26:00.508Z,25.67
2023-02-28T10:28:37.025Z,17.55
2023-02-28T10:31:18.728Z,17.43
2023-02-28T10:33:53.423Z,18.90
2023-02-28T10:36:25.408Z,21.27
2023-02-28T10:41:41.479Z,26.20
2023-02-28T10:44:26.594Z,18.40
2023-02-28T10:47:05.883Z,21.98
2023-02-28T10:49:35.937Z,31.75
2023-02-28T10:52:09.087Z,27.38
2023-02-28T10:54:44.388Z,27.30
2023-02-28T10:57:25.698Z,27.73
2023-02-28T10:59:56.926Z,22.13
2023-02-28T11:02:42.071Z,23.35
2023-02-28T11:11:46.711Z,22.75
2023-02-28T11:14:44.367Z,20.80
2023-02-28T11:17:26.743Z,20.38
2023-02-28T11:19:58.178Z,28.75
2023-02-28T11:22:30.032Z,20.00
2023-02-28T11:25:04.911Z,25.33
2023-02-28T11:27:35.064Z,22.13
2023-02-28T11:30:09.941Z,22.90
2023-02-28T11:32:42.043Z,22.70
2023-02-28T11:35:11.087Z,31.77
2023-02-28T11:37:48.041Z,21.48
2023-02-28T11:40:20.802Z,28.08
2023-02-28T11:43:15.926Z,17.27
2023-02-28T11:46:13.314Z,18.63
2023-02-28T11:49:10.245Z,30.95
2023-02-28T11:51:59.501Z,26.48
2023-02-28T11:55:00.526Z,28.48
2023-02-28T11:57:33.054Z,34.25
2023-02-28T12:00:31.385Z,32.33
2023-02-28T12:03:24.477Z,18.98
2023-02-28T12:06:14.295Z,20.02
2023-02-28T12:09:15.126Z,22.08
2023-02-28T12:11:57.194Z,29.27
2023-02-28T12:14:40.300Z,27.23
2023-02-28T12:19:56.754Z,29.23
2023-02-28T12:22:43.866Z,22.98
2023-02-28T12:25:57.514Z,22.05
2023-02-28T12:28:32.602Z,20.20
2023-02-28T12:31:13.831Z,26.88
2023-02-28T12:33:49.882Z,23.13
2023-02-28T12:36:22.655Z,19.73
2023-02-28T12:39:17.051Z,30.85
2023-02-28T12:42:04.091Z,17.60
2023-02-28T12:48:05.140Z,20.58
2023-02-28T12:57:34.922Z,18.00
2023-02-28T13:00:34.935Z,21.08
2023-02-28T13:04:06.375Z,13.25
2023-02-28T13:06:57.996Z,119.72
2023-02-28T13:09:36.088Z,32.35
2023-02-28T13:12:16.699Z,74.18
2023-02-28T13:14:46.191Z,188.52
2023-02-28T13:17:22.443Z,74.45
2023-02-28T13:19:55.365Z,35.28
2023-02-28T13:22:26.498Z,45.95
2023-02-28T13:24:55.391Z,32.97
2023-02-28T13:27:34.112Z,11.00
2023-02-28T13:30:04.890Z,19.00
2023-02-28T13:35:38.157Z,15.73
2023-02-28T13:38:17.098Z,15.35
2023-02-28T13:40:46.690Z,19.02
2023-02-28T13:43:25.296Z,12.88
2023-02-28T13:46:13.935Z,10.68
2023-02-28T13:48:46.043Z,17.40
2023-02-28T13:51:42.883Z,17.70
2023-02-28T13:54:40.456Z,11.15
2023-02-28T13:57:29.674Z,16.40
2023-02-28T14:00:24.097Z,16.15
2023-02-28T14:03:55.209Z,18.45
2023-02-28T14:06:50.713Z,29.10
2023-02-28T14:09:42.798Z,10.32
2023-02-28T14:17:02.181Z,16.17
2023-02-28T14:19:53.247Z,13.38
2023-02-28T14:22:31.823Z,17.45
2023-02-28T14:25:29.456Z,11.13
2023-02-28T14:28:35.279Z,7.78
2023-02-28T14:31:26.244Z,11.52
2023-02-28T14:34:20.067Z,15.30
2023-02-28T14:36:48.943Z,16.40
2023-02-28T14:39:24.321Z,16.67
2023-02-28T14:41:55.735Z,16.30
2023-02-28T14:44:26.774Z,15.50
2023-02-28T14:47:06.817Z,13.83
2023-02-28T14:49:52.528Z,12.07
2023-02-28T14:52:22.698Z,25.30
2023-02-28T14:55:02.256Z,15.88
2023-02-28T14:57:37.671Z,14.07
2023-02-28T15:00:12.851Z,15.18
2023-02-28T15:02:41.510Z,15.77
2023-02-28T15:05:28.071Z,17.75
2023-02-28T15:08:30.754Z,20.65
2023-02-28T15:13:47.452Z,13.55
2023-02-28T15:16:26.595Z,14.55
2023-02-28T15:18:58.505Z,18.80
2023-02-28T15:21:34.105Z,11.27
2023-02-28T15:24:27.724Z,15.45
2023-02-28T15:26:57.747Z,15.82
2023-02-28T15:29:29.653Z,12.02
2023-02-28T15:32:11.103Z,11.53
2023-02-28T15:34:44.727Z,15.43
2023-02-28T15:37:34.622Z,13.40
2023-02-28T15:40:15.277Z,12.73
2023-02-28T15:42:45.112Z,10.48
2023-02-28T15:45:49.211Z,15.52
2023-02-28T15:48:32.047Z,12.75
2023-02-28T15:51:11.212Z,11.82
2023-02-28T15:53:58.218Z,12.00
2023-02-28T15:59:00.296Z,10.45
2023-02-28T16:01:31.440Z,15.15
2023-02-28T16:04:01.853Z,12.93
2023-02-28T16:06:38.272Z,10.27
2023-02-28T16:09:11.116Z,20.02
2023-02-28T16:11:51.982Z,14.73
2023-02-28T16:14:28.208Z,11.40
2023-02-28T16:17:10.042Z,18.05
2023-02-28T16:19:38.006Z,16.98
2023-02-28T16:22:07.228Z,14.77
2023-02-28T16:24:35.454Z,10.15
2023-02-28T16:27:06.747Z,23.98
2023-02-28T16:29:36.356Z,14.02
2023-02-28T16:32:07.542Z,9.88
2023-02-28T16:34:37.624Z,9.07
2023-02-28T16:37:10.980Z,9.63
2023-02-28T16:39:41.038Z,8.35
2023-02-28T16:42:22.982Z,10.40
2023-02-28T16:44:50.864Z,9.73
2023-02-28T16:47:18.778Z,16.95
2023-02-28T16:49:49.492Z,12.90
2023-02-28T16:52:17.640Z,7.82
2023-02-28T16:54:45.676Z,15.82
2023-02-28T16:57:23.299Z,13.48
2023-02-28T16:59:54.006Z,15.13
2023-02-28T17:02:22.315Z,11.20
2023-02-28T17:04:50.353Z,17.05
2023-02-28T17:07:18.465Z,10.23
2023-02-28T17:09:46.840Z,11.82
2023-02-28T17:12:15.642Z,9.98
2023-02-28T17:14:45.145Z,14.77
2023-02-28T17:17:21.391Z,22.63
2023-02-28T17:19:54.421Z,14.23
2023-02-28T17:22:22.752Z,21.13
2023-02-28T17:24:51.933Z,13.98
2023-02-28T17:27:20.503Z,14.25
2023-02-28T17:29:49.279Z,16.67
2023-02-28T17:32:18.664Z,14.15
2023-02-28T17:34:47.262Z,19.70
2023-02-28T17:37:17.563Z,15.45
2023-02-28T17:39:45.495Z,20.60
2023-02-28T17:42:17.397Z,18.10
2023-02-28T17:44:46.313Z,23.52
2023-02-28T17:47:14.273Z,16.63
2023-02-28T17:49:42.867Z,14.90
2023-02-28T17:52:10.708Z,18.77
2023-02-28T17:54:39.869Z,10.88
2023-02-28T17:57:11.464Z,18.00
2023-02-28T17:59:39.711Z,15.02
2023-02-28T18:02:08.029Z,12.88
2023-02-28T18:04:36.020Z,17.90
2023-02-28T18:07:04.013Z,19.08
2023-02-28T18:09:31.733Z,16.20
2023-02-28T18:11:59.426Z,24.70
2023-02-28T18:14:27.584Z,16.50
2023-02-28T18:16:57.670Z,21.67
2023-02-28T18:19:26.200Z,26.15
2023-02-28T18:21:55.053Z,25.20
2023-02-28T18:24:23.298Z,24.40
2023-02-28T18:26:51.717Z,15.38
2023-02-28T18:29:27.557Z,21.80
2023-02-28T18:31:56.110Z,16.83
2023-02-28T18:34:24.382Z,17.92
2023-02-28T18:36:52.588Z,21.17
2023-02-28T18:39:20.610Z,24.35
2023-02-28T18:41:48.915Z,20.40
2023-02-28T18:44:20.156Z,16.02
2023-02-28T18:46:51.097Z,19.73
2023-02-28T18:49:19.214Z,26.95
2023-02-28T18:51:47.317Z,23.20
2023-02-28T18:54:16.831Z,20.52
2023-02-28T18:56:45.148Z,16.33
2023-02-28T18:59:13.123Z,25.80
2023-02-28T19:01:41.211Z,30.48
2023-02-28T19:04:12.386Z,24.33
2023-02-28T19:06:40.281Z,21.95
2023-02-28T19:09:09.018Z,20.52
2023-02-28T19:11:37.303Z,22.10
2023-02-28T19:14:09.753Z,20.05
2023-02-28T19:16:37.882Z,33.08
2023-02-28T19:19:05.912Z,26.65
2023-02-28T19:21:36.840Z,32.05
2023-02-28T19:24:04.943Z,20.63
2023-02-28T19:26:37.884Z,24.65
2023-02-28T19:29:05.632Z,33.50
2023-02-28T19:31:33.851Z,25.58
2023-02-28T19:34:01.968Z,26.50
2023-02-28T19:36:29.894Z,26.95
2023-02-28T19:38:57.896Z,29.52
2023-02-28T19:41:25.619Z,26.30
2023-02-28T19:43:54.335Z,33.38
2023-02-28T19:46:21.922Z,20.50
2023-02-28T19:48:49.913Z,26.63
2023-02-28T19:53:46.310Z,30.48
2023-02-28T19:56:14.513Z,19.52
2023-02-28T19:58:42.132Z,26.42
2023-02-28T20:01:14.073Z,32.80
2023-02-28T20:03:42.176Z,27.77
2023-02-28T20:06:11.290Z,32.60
2023-02-28T20:08:39.546Z,42.30
2023-02-28T20:11:12.552Z,28.42
2023-02-28T20:13:40.583Z,33.83
2023-02-28T20:16:09.830Z,35.67
2023-02-28T20:18:38.368Z,33.83
2023-02-28T20:21:08.736Z,34.88
2023-02-28T20:23:38.826Z,36.75
2023-02-28T20:26:06.582Z,26.40
2023-02-28T20:28:34.357Z,28.50
2023-02-28T20:31:02.056Z,31.55
2023-02-28T20:33:30.072Z,27.75
2023-02-28T20:35:59.767Z,26.70
2023-02-28T20:38:28.251Z,27.48
2023-02-28T20:40:56.697Z,27.15
2023-02-28T20:43:25.152Z,20.10
2023-02-28T20:45:58.479Z,33.85
2023-02-28T20:48:26.982Z,25.40
2023-02-28T20:50:56.157Z,35.88
2023-02-28T20:53:24.681Z,26.88
2023-02-28T20:56:00.269Z,38.38
2023-02-28T20:58:34.550Z,29.83
2023-02-28T21:01:03.639Z,47.10
2023-02-28T21:03:31.596Z,33.70
2023-02-28T21:06:03.185Z,28.85
2023-02-28T21:08:34.698Z,22.10
2023-02-28T21:11:02.613Z,41.33
2023-02-28T21:13:30.669Z,44.65
2023-02-28T21:16:09.873Z,44.50
2023-02-28T21:18:38.925Z,43.45
2023-02-28T21:21:17.524Z,50.00
2023-02-28T21:23:46.920Z,47.53
2023-02-28T21:26:19.550Z,56.00
2023-02-28T21:28:51.023Z,30.25
2023-02-28T21:31:19.890Z,48.40
2023-02-28T21:33:47.925Z,49.75
2023-02-28T21:36:18.065Z,57.22
2023-02-28T21:38:46.090Z,62.88
2023-02-28T21:41:21.162Z,61.20
2023-02-28T21:43:49.154Z,68.50
2023-02-28T21:46:20.818Z,68.68
2023-02-28T21:48:49.267Z,62.15
2023-02-28T21:51:21.806Z,62.72
2023-02-28T21:53:49.937Z,95.80
2023-02-28T21:56:25.311Z,106.05
2023-02-28T21:59:00.700Z,102.85
2023-02-28T22:01:32.734Z,108.10
2023-02-28T22:04:01.237Z,93.55
2023-02-28T22:06:31.105Z,90.38
2023-02-28T22:09:02.171Z,79.95
2023-02-28T22:11:29.949Z,62.50
2023-02-28T22:13:59.303Z,67.55
2023-02-28T22:16:33.205Z,80.18
2023-02-28T22:19:08.004Z,76.05
2023-02-28T22:21:36.120Z,84.45
2023-02-28T22:24:04.366Z,90.05
2023-02-28T22:26:33.133Z,86.20
2023-02-28T22:29:02.781Z,89.20
2023-02-28T22:31:31.775Z,91.60
2023-02-28T22:34:02.344Z,88.50
2023-02-28T22:36:30.597Z,82.40
2023-02-28T22:38:58.438Z,67.97
2023-02-28T22:41:26.785Z,70.25
2023-02-28T22:43:56.546Z,58.10
2023-02-28T22:46:24.652Z,77.88
2023-02-28T22:48:52.768Z,82.75
2023-02-28T22:51:22.333Z,68.88
2023-02-28T22:53:50.367Z,56.30
2023-02-28T22:56:20.555Z,64.28
2023-02-28T22:58:52.541Z,65.38
2023-02-28T23:01:20.935Z,70.18
2023-02-28T23:03:48.964Z,48.00
2023-02-28T23:06:30.471Z,55.58
2023-02-28T23:09:03.788Z,60.45
2023-02-28T23:11:33.516Z,56.35
2023-02-28T23:14:01.247Z,70.95
2023-02-28T23:16:37.629Z,59.72
2023-02-28T23:19:08.571Z,71.18
2023-02-28T23:21:36.094Z,51.90
2023-02-28T23:24:04.994Z,45.55
2023-02-28T23:26:33.086Z,72.35
2023-02-28T23:29:01.374Z,52.75
2023-02-28T23:31:30.537Z,67.05
2023-02-28T23:34:02.679Z,62.17
2023-02-28T23:36:32.458Z,44.72
2023-02-28T23:39:00.416Z,60.13
2023-02-28T23:41:28.148Z,56.38
2023-02-28T23:43:56.319Z,73.47
2023-02-28T23:46:23.985Z,59.53
2023-02-28T23:48:51.503Z,75.72
2023-02-28T23:51:20.651Z,69.38
2023-02-28T23:53:49.713Z,52.55
2023-02-28T23:56:19.300Z,46.42
2023-02-28T23:58:48.390Z,39.83
